Time;durP1;ratioP1;P1;durP2;ratioP2;P2;SDS_P1;SDS_P2;PMS_P1;PMS_P2;Temp;Humidity;BMP_temperature;BMP_pressure;BME280_temperature;BME280_humidity;BME280_pressure;Samples;Min_cycle;Max_cycle;Signal;HPM_P1;HPM_P2
2023/12/04 00:00:48;;;;;;;17.88;12.38;;;2.40;65.90;;;;;;5082173;28;20216;-63
2023/12/04 00:03:16;;;;;;;17.30;12.75;;;2.40;66.40;;;;;;5075349;28;20197;-62
2023/12/04 00:05:44;;;;;;;16.75;12.00;;;2.40;66.60;;;;;;5036617;28;20207;-63
2023/12/04 00:08:11;;;;;;;16.38;12.00;;;2.30;66.20;;;;;;5074376;28;20663;-62
2023/12/04 00:10:38;;;;;;;16.90;11.85;;;2.40;66.60;;;;;;5075829;28;20554;-62
2023/12/04 00:13:05;;;;;;;17.48;11.65;;;2.40;66.70;;;;;;5076255;28;20205;-62
2023/12/04 00:15:32;;;;;;;15.95;11.35;;;2.30;67.30;;;;;;5077507;28;20232;-62
2023/12/04 00:17:58;;;;;;;16.77;11.23;;;2.30;66.40;;;;;;5077133;28;20205;-63
2023/12/04 00:20:27;;;;;;;15.43;11.30;;;2.30;66.30;;;;;;5081425;28;20209;-65
2023/12/04 00:22:54;;;;;;;16.02;11.70;;;2.40;66.30;;;;;;5109328;28;20268;-63
2023/12/04 00:25:21;;;;;;;17.35;11.55;;;2.30;66.30;;;;;;5102029;28;20870;-63
2023/12/04 00:27:48;;;;;;;16.58;10.90;;;2.30;66.50;;;;;;5073110;28;20288;-62
2023/12/04 00:30:15;;;;;;;14.98;11.23;;;2.30;66.60;;;;;;5075179;28;20204;-63
2023/12/04 00:32:41;;;;;;;18.15;11.52;;;2.30;66.40;;;;;;5077871;28;20666;-62
2023/12/04 00:35:09;;;;;;;15.20;11.07;;;2.40;66.90;;;;;;5076738;28;20217;-62
2023/12/04 00:37:38;;;;;;;18.70;11.55;;;2.30;66.10;;;;;;5074312;28;20204;-62
2023/12/04 00:40:07;;;;;;;16.23;11.65;;;2.40;66.00;;;;;;5082398;28;20637;-63
2023/12/04 00:42:33;;;;;;;14.73;11.20;;;2.30;65.80;;;;;;5074327;28;20201;-63
2023/12/04 00:45:00;;;;;;;15.40;10.27;;;2.30;65.90;;;;;;5082961;28;20204;-63
2023/12/04 00:47:27;;;;;;;14.70;10.77;;;2.30;66.10;;;;;;5087177;28;20714;-63
2023/12/04 00:49:54;;;;;;;15.65;11.15;;;2.30;66.20;;;;;;5080371;28;20203;-63
2023/12/04 00:52:21;;;;;;;17.85;12.18;;;2.30;66.00;;;;;;5073655;28;20201;-62
2023/12/04 00:54:49;;;;;;;23.33;14.45;;;2.30;66.00;;;;;;5073990;28;20217;-62
2023/12/04 00:57:16;;;;;;;18.77;13.60;;;2.30;66.10;;;;;;5072688;28;20205;-63
2023/12/04 00:59:43;;;;;;;17.00;11.73;;;2.30;65.80;;;;;;5078077;28;20216;-63
2023/12/04 01:02:09;;;;;;;14.52;10.73;;;2.20;65.80;;;;;;5083516;28;20197;-63
2023/12/04 01:04:36;;;;;;;17.65;11.57;;;2.20;66.00;;;;;;5070855;28;20212;-64
2023/12/04 01:07:03;;;;;;;16.20;10.85;;;2.20;65.80;;;;;;5084685;28;20192;-63
2023/12/04 01:09:30;;;;;;;17.75;11.23;;;2.20;65.90;;;;;;5073191;28;20209;-63
2023/12/04 01:11:58;;;;;;;16.63;10.88;;;2.20;66.00;;;;;;5074217;28;20556;-63
2023/12/04 01:14:25;;;;;;;15.10;10.85;;;2.20;66.20;;;;;;5089169;28;20200;-63
2023/12/04 01:16:52;;;;;;;15.40;10.75;;;2.20;66.50;;;;;;5078915;28;20221;-63
2023/12/04 01:19:21;;;;;;;15.80;11.27;;;2.20;66.70;;;;;;5078393;28;20212;-62
2023/12/04 01:21:47;;;;;;;13.30;10.20;;;2.20;66.90;;;;;;5009844;28;20203;-63
2023/12/04 01:24:16;;;;;;;15.73;10.50;;;2.20;67.00;;;;;;5086069;28;20756;-63
2023/12/04 01:26:43;;;;;;;15.65;10.70;;;2.20;67.10;;;;;;5077854;28;20197;-62
2023/12/04 01:29:11;;;;;;;17.13;11.02;;;2.20;67.90;;;;;;5085461;28;20220;-62
2023/12/04 01:31:38;;;;;;;15.43;10.88;;;2.20;67.50;;;;;;5085890;28;20212;-62
2023/12/04 01:34:05;;;;;;;15.65;10.88;;;2.20;67.50;;;;;;5079060;28;20211;-64
2023/12/04 01:36:32;;;;;;;14.27;10.38;;;2.20;67.20;;;;;;5091431;28;20231;-62
2023/12/04 01:38:58;;;;;;;16.13;10.85;;;2.20;67.10;;;;;;5083351;28;20207;-63
2023/12/04 01:41:25;;;;;;;14.27;9.77;;;2.20;67.30;;;;;;5087268;28;20205;-62
2023/12/04 01:43:52;;;;;;;15.90;11.15;;;2.20;67.30;;;;;;5076516;28;20746;-62
2023/12/04 01:46:21;;;;;;;16.00;10.20;;;2.20;67.40;;;;;;5082542;28;20193;-62
2023/12/04 01:48:48;;;;;;;15.48;11.25;;;2.20;67.30;;;;;;5029543;28;20661;-63
2023/12/04 01:51:15;;;;;;;18.15;10.95;;;2.20;67.20;;;;;;5089237;28;20207;-63
2023/12/04 01:53:43;;;;;;;14.80;10.48;;;2.30;67.40;;;;;;5092017;28;20211;-62
2023/12/04 01:56:11;;;;;;;14.25;10.25;;;2.20;67.20;;;;;;5094468;28;20726;-62
2023/12/04 01:58:38;;;;;;;15.50;10.55;;;2.30;67.00;;;;;;5084210;28;20206;-62
2023/12/04 02:01:07;;;;;;;14.20;10.50;;;2.20;66.90;;;;;;5090753;28;20231;-63
2023/12/04 02:03:36;;;;;;;14.73;10.25;;;2.20;66.90;;;;;;5069802;28;20234;-63
2023/12/04 02:06:03;;;;;;;13.70;10.63;;;2.20;66.90;;;;;;5090288;28;20192;-63
2023/12/04 02:08:30;;;;;;;15.02;10.13;;;2.20;66.90;;;;;;5094125;28;20200;-62
2023/12/04 02:10:57;;;;;;;14.50;10.18;;;2.20;67.00;;;;;;5088818;28;20212;-64
2023/12/04 02:13:24;;;;;;;15.60;10.40;;;2.20;66.90;;;;;;5092626;28;20594;-62
2023/12/04 02:15:54;;;;;;;16.13;10.00;;;2.20;67.00;;;;;;5091825;28;20300;-62
2023/12/04 02:18:22;;;;;;;17.80;10.95;;;2.20;67.00;;;;;;5092401;28;20856;-62
2023/12/04 02:20:50;;;;;;;14.88;10.55;;;2.20;66.80;;;;;;5083218;28;20209;-63
2023/12/04 02:23:17;;;;;;;14.15;10.20;;;2.20;66.70;;;;;;5085762;28;20211;-63
2023/12/04 02:25:45;;;;;;;14.70;10.40;;;2.20;66.70;;;;;;5080238;28;20197;-63
2023/12/04 02:28:16;;;;;;;14.40;9.57;;;2.20;66.60;;;;;;5088977;28;20201;-63
2023/12/04 02:30:46;;;;;;;13.25;10.27;;;2.20;67.60;;;;;;5084174;28;20211;-62
2023/12/04 02:33:14;;;;;;;14.20;9.93;;;2.10;66.60;;;;;;5076742;28;20215;-62
2023/12/04 02:35:42;;;;;;;13.63;9.93;;;2.10;66.70;;;;;;5073676;28;20239;-63
2023/12/04 02:38:10;;;;;;;12.48;9.48;;;2.10;67.00;;;;;;5075100;28;20211;-62
2023/12/04 02:40:37;;;;;;;15.02;10.18;;;2.00;67.00;;;;;;5087814;28;20197;-63
2023/12/04 02:43:05;;;;;;;14.00;9.75;;;2.10;66.70;;;;;;5073906;28;20296;-63
2023/12/04 02:45:33;;;;;;;15.52;8.93;;;2.10;66.60;;;;;;5086624;28;20255;-62
2023/12/04 02:48:00;;;;;;;11.82;8.32;;;2.10;66.60;;;;;;5093158;28;20205;-62
2023/12/04 02:50:27;;;;;;;13.48;9.88;;;2.10;67.00;;;;;;5079912;28;20215;-62
2023/12/04 02:52:54;;;;;;;13.77;9.95;;;2.00;66.90;;;;;;5072826;28;20201;-63
2023/12/04 02:55:21;;;;;;;12.57;9.38;;;2.10;67.10;;;;;;5072867;28;20209;-63
2023/12/04 02:57:47;;;;;;;14.63;10.00;;;2.00;66.90;;;;;;5086123;28;20667;-62
2023/12/04 03:00:16;;;;;;;14.50;10.25;;;2.00;66.80;;;;;;5091802;28;20227;-62
2023/12/04 03:02:43;;;;;;;15.18;9.93;;;1.90;66.70;;;;;;5080724;28;20200;-62
2023/12/04 03:05:11;;;;;;;15.20;10.43;;;1.90;66.60;;;;;;5079718;28;20205;-63
2023/12/04 03:07:38;;;;;;;14.35;10.10;;;1.80;66.70;;;;;;5076285;28;20193;-62
2023/12/04 03:10:06;;;;;;;15.02;10.82;;;1.80;66.80;;;;;;5072291;28;20217;-62
2023/12/04 03:12:32;;;;;;;16.30;10.57;;;1.80;66.80;;;;;;5074626;28;20208;-63
2023/12/04 03:14:59;;;;;;;15.90;9.98;;;1.90;66.70;;;;;;5075684;28;20277;-63
2023/12/04 03:17:28;;;;;;;13.82;10.48;;;1.90;66.60;;;;;;5076422;28;20222;-63
2023/12/04 03:19:55;;;;;;;16.85;11.13;;;1.90;66.80;;;;;;5081414;28;20201;-63
2023/12/04 03:22:22;;;;;;;16.42;10.77;;;1.80;67.40;;;;;;5073504;28;20228;-62
2023/12/04 03:24:49;;;;;;;16.08;10.75;;;1.80;66.70;;;;;;5090630;28;20215;-63
2023/12/04 03:27:16;;;;;;;13.93;9.52;;;1.80;66.80;;;;;;5091137;28;20292;-62
2023/12/04 03:29:43;;;;;;;14.57;10.30;;;1.80;67.00;;;;;;5083349;28;20306;-62
2023/12/04 03:32:09;;;;;;;17.17;12.02;;;1.80;67.00;;;;;;5079614;28;20207;-62
2023/12/04 03:34:38;;;;;;;14.50;10.20;;;1.80;67.00;;;;;;5091510;28;20197;-63
2023/12/04 03:37:05;;;;;;;12.82;10.45;;;1.80;67.10;;;;;;5091598;28;20251;-64
2023/12/04 03:39:31;;;;;;;11.90;9.07;;;1.80;67.30;;;;;;5091393;28;20238;-64
2023/12/04 03:41:58;;;;;;;15.38;9.80;;;1.90;67.50;;;;;;5088409;28;20703;-63
2023/12/04 03:44:26;;;;;;;12.80;9.38;;;1.90;67.30;;;;;;5081741;28;20208;-63
2023/12/04 03:46:53;;;;;;;13.88;9.93;;;1.90;67.30;;;;;;5091885;28;20207;-63
2023/12/04 03:49:20;;;;;;;13.80;9.98;;;1.90;67.50;;;;;;5089865;28;20211;-63
2023/12/04 03:51:48;;;;;;;12.18;9.15;;;1.90;67.40;;;;;;5091665;28;20543;-64
2023/12/04 03:54:14;;;;;;;12.45;9.40;;;1.80;67.50;;;;;;5080162;28;20202;-63
2023/12/04 03:56:41;;;;;;;13.63;9.00;;;1.80;67.80;;;;;;5068994;28;20252;-62
2023/12/04 03:59:10;;;;;;;12.80;8.93;;;1.70;68.00;;;;;;5087387;28;20194;-63
2023/12/04 04:01:37;;;;;;;14.25;9.50;;;1.70;68.40;;;;;;5071258;28;20263;-63
2023/12/04 04:04:04;;;;;;;14.50;9.73;;;1.60;68.30;;;;;;5071185;28;20211;-63
2023/12/04 04:06:31;;;;;;;15.20;10.63;;;1.60;68.10;;;;;;5084964;28;20216;-63
2023/12/04 04:08:59;;;;;;;14.32;10.27;;;1.60;68.10;;;;;;5088813;28;20211;-63
2023/12/04 04:11:26;;;;;;;16.48;10.27;;;1.70;68.30;;;;;;5075454;28;20212;-63
2023/12/04 04:13:52;;;;;;;12.90;9.45;;;1.70;68.10;;;;;;5090755;28;20223;-63
2023/12/04 04:16:19;;;;;;;16.08;10.63;;;1.80;68.20;;;;;;5090879;28;20224;-63
2023/12/04 04:18:46;;;;;;;14.10;9.70;;;1.90;68.40;;;;;;5077217;28;20650;-63
2023/12/04 04:21:13;;;;;;;13.82;9.75;;;1.80;68.20;;;;;;5079133;28;20587;-63
2023/12/04 04:23:40;;;;;;;14.98;9.77;;;1.80;68.40;;;;;;5070934;28;20205;-63
2023/12/04 04:26:08;;;;;;;13.20;9.93;;;1.80;69.30;;;;;;5073616;28;20735;-63
2023/12/04 04:28:35;;;;;;;14.25;9.68;;;1.80;68.60;;;;;;5085090;28;20201;-63
2023/12/04 04:31:02;;;;;;;14.18;10.32;;;1.80;68.70;;;;;;5072858;28;20208;-63
2023/12/04 04:33:29;;;;;;;12.23;9.18;;;1.80;68.70;;;;;;5082593;28;20231;-62
2023/12/04 04:35:55;;;;;;;15.10;10.45;;;1.80;68.70;;;;;;5090655;28;20211;-62
2023/12/04 04:38:22;;;;;;;16.60;9.95;;;1.80;68.50;;;;;;5081121;28;20206;-63
2023/12/04 04:40:49;;;;;;;15.52;10.27;;;1.80;68.50;;;;;;5087811;28;20204;-62
2023/12/04 04:43:17;;;;;;;12.63;9.77;;;1.80;68.60;;;;;;5090482;28;20209;-62
2023/12/04 04:45:44;;;;;;;13.10;10.00;;;1.80;68.70;;;;;;5090413;28;20224;-64
2023/12/04 04:48:11;;;;;;;13.68;9.43;;;1.80;68.70;;;;;;5083261;28;20193;-63
2023/12/04 04:50:38;;;;;;;13.30;9.93;;;1.80;68.80;;;;;;5085268;28;20201;-62
2023/12/04 04:53:05;;;;;;;14.40;9.95;;;1.80;68.80;;;;;;5090345;28;20197;-62
2023/12/04 04:55:31;;;;;;;12.75;9.80;;;1.80;68.80;;;;;;5077890;28;20201;-62
2023/12/04 04:57:58;;;;;;;13.57;10.15;;;1.90;69.00;;;;;;5084709;28;20709;-62
2023/12/04 05:00:27;;;;;;;13.52;10.25;;;1.90;69.10;;;;;;5084294;28;20228;-62
2023/12/04 05:02:53;;;;;;;13.18;9.45;;;1.90;69.40;;;;;;5090280;28;20686;-63
2023/12/04 05:05:20;;;;;;;13.85;9.57;;;1.80;69.50;;;;;;5082800;28;20225;-63
2023/12/04 05:07:47;;;;;;;16.13;9.30;;;1.90;69.70;;;;;;5074219;28;20208;-62
2023/12/04 05:10:14;;;;;;;12.02;9.65;;;1.90;70.10;;;;;;5071159;28;20569;-63
2023/12/04 05:12:40;;;;;;;12.75;9.52;;;1.80;70.00;;;;;;5071725;28;20225;-63
2023/12/04 05:15:08;;;;;;;12.75;9.23;;;1.80;70.40;;;;;;5068349;28;20707;-62
2023/12/04 05:17:36;;;;;;;16.48;9.85;;;1.80;70.40;;;;;;5052207;28;20218;-62
2023/12/04 05:20:03;;;;;;;15.50;10.70;;;1.80;70.40;;;;;;5077948;28;20203;-65
2023/12/04 05:22:30;;;;;;;14.55;9.63;;;1.90;70.70;;;;;;5068347;28;20205;-64
2023/12/04 05:24:57;;;;;;;13.63;9.32;;;1.90;70.60;;;;;;5075126;28;20204;-62
2023/12/04 05:27:24;;;;;;;15.35;10.48;;;1.90;70.80;;;;;;5077449;28;20198;-62
2023/12/04 05:29:51;;;;;;;13.50;9.85;;;1.90;70.80;;;;;;5079960;28;20209;-62
2023/12/04 05:32:18;;;;;;;12.77;9.27;;;2.00;70.80;;;;;;5074383;28;20201;-63
2023/12/04 05:34:46;;;;;;;12.57;9.15;;;1.90;71.00;;;;;;5073588;28;20204;-62
2023/12/04 05:37:13;;;;;;;12.57;9.65;;;1.90;71.30;;;;;;5077935;28;20235;-62
2023/12/04 05:39:39;;;;;;;15.18;9.75;;;1.90;71.40;;;;;;5088189;28;20204;-64
2023/12/04 05:42:06;;;;;;;11.77;9.13;;;1.90;71.40;;;;;;5074899;28;20203;-63
2023/12/04 05:44:34;;;;;;;14.90;9.50;;;2.00;71.50;;;;;;5070290;28;20212;-63
2023/12/04 05:47:01;;;;;;;13.20;8.75;;;2.00;71.50;;;;;;5080834;28;20199;-62
2023/12/04 05:49:29;;;;;;;12.57;9.25;;;1.90;72.00;;;;;;5075956;28;20200;-64
2023/12/04 05:51:57;;;;;;;12.50;9.02;;;2.00;71.30;;;;;;5087796;28;20200;-64
2023/12/04 05:54:24;;;;;;;14.13;9.35;;;2.10;71.30;;;;;;5077553;28;20201;-64
2023/12/04 05:56:51;;;;;;;14.80;9.93;;;2.10;71.20;;;;;;5084928;28;20227;-64
2023/12/04 05:59:18;;;;;;;15.57;10.02;;;2.10;71.40;;;;;;5079216;28;20197;-64
2023/12/04 06:01:45;;;;;;;12.93;9.40;;;2.10;71.60;;;;;;5077894;28;20202;-62
2023/12/04 06:04:12;;;;;;;14.85;9.90;;;2.10;71.50;;;;;;5073801;28;20215;-63
2023/12/04 06:06:38;;;;;;;15.02;10.88;;;2.20;71.50;;;;;;5086747;28;20206;-63
2023/12/04 06:09:07;;;;;;;14.25;10.35;;;2.20;71.30;;;;;;5082565;28;20282;-64
2023/12/04 06:11:33;;;;;;;17.00;11.40;;;2.30;71.20;;;;;;5087274;28;20267;-63
2023/12/04 06:14:00;;;;;;;16.38;11.95;;;2.30;71.00;;;;;;5082526;28;20207;-64
2023/12/04 06:16:27;;;;;;;14.15;10.82;;;2.30;70.90;;;;;;5088112;28;20232;-63
2023/12/04 06:18:54;;;;;;;14.63;10.75;;;2.30;71.60;;;;;;5093387;28;20203;-63
2023/12/04 06:21:20;;;;;;;15.60;10.95;;;2.30;70.90;;;;;;5080314;28;20201;-63
2023/12/04 06:23:48;;;;;;;12.93;9.82;;;2.40;71.00;;;;;;5080295;28;20211;-63
2023/12/04 06:26:18;;;;;;;13.63;10.32;;;2.40;71.00;;;;;;5088869;28;20252;-63
2023/12/04 06:28:45;;;;;;;12.25;9.45;;;2.40;71.00;;;;;;5083370;28;20197;-63
2023/12/04 06:31:13;;;;;;;15.20;10.65;;;2.40;71.00;;;;;;5077150;28;20204;-63
2023/12/04 06:33:41;;;;;;;14.55;9.93;;;2.40;71.00;;;;;;5091141;28;20209;-63
2023/12/04 06:36:09;;;;;;;13.75;9.93;;;2.40;71.10;;;;;;5077159;28;20204;-63
2023/12/04 06:38:40;;;;;;;16.50;10.13;;;2.40;71.10;;;;;;5073066;28;20316;-63
2023/12/04 06:41:08;;;;;;;13.80;9.75;;;2.40;71.00;;;;;;5059180;28;20206;-63
2023/12/04 06:43:37;;;;;;;15.13;10.35;;;2.40;71.10;;;;;;5091353;28;20552;-62
2023/12/04 06:46:05;;;;;;;11.65;9.13;;;2.50;71.30;;;;;;5090805;28;20316;-63
2023/12/04 06:48:33;;;;;;;12.43;9.27;;;2.50;71.10;;;;;;5079587;28;20224;-64
2023/12/04 06:51:00;;;;;;;12.90;9.45;;;2.50;71.20;;;;;;5091055;28;20212;-63
2023/12/04 06:53:28;;;;;;;12.57;9.15;;;2.50;71.30;;;;;;5084472;28;20289;-65
2023/12/04 06:55:55;;;;;;;14.20;9.13;;;2.50;71.30;;;;;;5072662;28;20201;-64
2023/12/04 06:58:22;;;;;;;12.65;9.10;;;2.50;71.20;;;;;;5079083;28;20243;-63
2023/12/04 07:00:53;;;;;;;13.45;8.48;;;2.50;71.10;;;;;;5092715;28;20311;-64
2023/12/04 07:03:19;;;;;;;10.18;8.10;;;2.60;71.40;;;;;;5059464;28;20295;-63
2023/12/04 07:05:47;;;;;;;12.60;8.60;;;2.60;71.30;;;;;;5090544;28;20220;-63
2023/12/04 07:08:13;;;;;;;14.00;9.07;;;2.60;71.20;;;;;;5083735;28;20193;-63
2023/12/04 07:10:41;;;;;;;12.88;9.13;;;2.60;71.50;;;;;;5083962;28;20232;-63
2023/12/04 07:13:07;;;;;;;13.15;9.48;;;2.60;71.50;;;;;;5087977;28;20219;-64
2023/12/04 07:15:34;;;;;;;11.52;8.40;;;2.60;71.50;;;;;;5087585;28;20226;-63
2023/12/04 07:18:03;;;;;;;12.27;8.75;;;2.60;71.50;;;;;;5075036;28;20596;-63
2023/12/04 07:20:30;;;;;;;10.07;8.30;;;2.60;71.40;;;;;;5084276;28;20303;-65
2023/12/04 07:22:57;;;;;;;9.85;8.02;;;2.60;71.40;;;;;;5074285;28;20201;-63
2023/12/04 07:25:24;;;;;;;10.88;8.20;;;2.70;71.60;;;;;;5081128;28;20224;-64
2023/12/04 07:27:51;;;;;;;11.50;8.45;;;2.70;71.70;;;;;;5088830;28;20199;-65
2023/12/04 07:30:18;;;;;;;13.98;8.80;;;2.70;71.90;;;;;;5073163;28;20209;-64
2023/12/04 07:32:45;;;;;;;11.57;8.32;;;2.70;72.00;;;;;;5083176;28;20242;-64
2023/12/04 07:35:14;;;;;;;12.60;8.52;;;2.80;72.10;;;;;;5081931;28;20277;-64
2023/12/04 07:37:41;;;;;;;11.38;7.80;;;2.80;71.90;;;;;;5072536;28;20316;-64
2023/12/04 07:40:10;;;;;;;11.50;8.35;;;2.80;71.70;;;;;;5088264;28;20220;-64
2023/12/04 07:42:37;;;;;;;11.43;7.97;;;2.90;71.70;;;;;;5077764;28;20201;-62
2023/12/04 07:45:05;;;;;;;11.43;7.80;;;2.90;71.90;;;;;;5084481;28;20229;-63
2023/12/04 07:47:31;;;;;;;10.32;7.82;;;2.90;71.80;;;;;;5089864;28;20197;-62
2023/12/04 07:49:59;;;;;;;13.65;8.82;;;3.00;72.20;;;;;;5088988;28;20232;-63
2023/12/04 07:52:28;;;;;;;12.73;8.23;;;3.00;72.40;;;;;;5071578;28;20215;-63
2023/12/04 07:54:55;;;;;;;11.73;7.97;;;3.00;72.40;;;;;;5071269;28;20224;-62
2023/12/04 07:57:22;;;;;;;14.60;9.25;;;3.00;72.40;;;;;;5071808;28;20217;-62
2023/12/04 07:59:49;;;;;;;13.20;9.93;;;3.10;72.70;;;;;;5073664;28;20217;-63
2023/12/04 08:02:16;;;;;;;11.70;9.02;;;3.10;72.60;;;;;;5078976;28;20308;-63
2023/12/04 08:04:42;;;;;;;14.88;9.73;;;3.10;72.70;;;;;;5090428;28;20262;-62
2023/12/04 08:07:10;;;;;;;12.35;10.13;;;3.20;72.80;;;;;;5073638;28;20204;-63
2023/12/04 08:09:41;;;;;;;13.43;8.82;;;3.20;72.70;;;;;;5070673;28;20236;-64
2023/12/04 08:12:08;;;;;;;12.50;8.82;;;3.20;72.70;;;;;;5072343;28;20204;-63
2023/12/04 08:15:10;;;;;;;10.50;8.45;;;3.20;72.70;;;;;;5071763;28;20235;-64
2023/12/04 08:17:37;;;;;;;14.23;8.00;;;3.20;73.00;;;;;;5075060;28;20216;-63
2023/12/04 08:20:04;;;;;;;11.70;8.30;;;3.20;72.80;;;;;;5079605;28;20323;-63
2023/12/04 08:22:31;;;;;;;10.68;8.23;;;3.30;72.80;;;;;;5056124;28;20205;-63
2023/12/04 08:25:00;;;;;;;14.43;8.45;;;3.20;72.30;;;;;;5080632;28;20212;-63
2023/12/04 08:27:26;;;;;;;12.27;8.10;;;3.20;72.50;;;;;;5082869;28;20193;-62
2023/12/04 08:29:53;;;;;;;14.40;8.02;;;3.30;72.90;;;;;;5081169;28;20209;-64
2023/12/04 08:32:21;;;;;;;10.70;8.02;;;3.30;73.10;;;;;;5070890;28;20446;-63
2023/12/04 08:34:48;;;;;;;12.00;8.27;;;3.40;73.20;;;;;;5070191;28;20598;-64
2023/12/04 08:37:14;;;;;;;9.98;7.82;;;3.40;73.20;;;;;;5070452;28;20208;-62
2023/12/04 08:39:41;;;;;;;12.07;8.73;;;3.50;72.90;;;;;;5072845;28;20619;-64
2023/12/04 08:42:09;;;;;;;11.65;7.45;;;3.50;72.40;;;;;;5073728;28;20232;-64
2023/12/04 08:44:37;;;;;;;10.75;7.70;;;3.50;72.10;;;;;;5070577;28;20201;-64
2023/12/04 08:47:04;;;;;;;9.88;7.20;;;3.60;72.00;;;;;;5070484;28;20216;-64
2023/12/04 08:49:32;;;;;;;10.73;7.65;;;3.60;72.20;;;;;;5074131;28;20205;-62
2023/12/04 08:51:59;;;;;;;9.55;7.22;;;3.70;72.30;;;;;;5072940;28;20217;-62
2023/12/04 08:54:26;;;;;;;12.13;8.18;;;3.70;72.30;;;;;;5084201;28;20289;-62
2023/12/04 08:56:54;;;;;;;12.80;8.88;;;3.80;72.40;;;;;;5087406;28;20203;-64
2023/12/04 08:59:22;;;;;;;10.00;8.23;;;3.80;72.60;;;;;;5090281;28;20232;-64
2023/12/04 09:01:49;;;;;;;11.23;8.35;;;3.80;72.60;;;;;;5090601;28;20243;-64
2023/12/04 09:04:16;;;;;;;12.32;9.40;;;3.80;72.40;;;;;;5090196;28;20204;-63
2023/12/04 09:06:43;;;;;;;10.70;8.25;;;3.90;72.50;;;;;;5078500;28;20201;-63
2023/12/04 09:09:11;;;;;;;11.88;8.70;;;3.90;72.50;;;;;;5075751;28;20308;-63
2023/12/04 09:11:41;;;;;;;12.13;9.57;;;3.90;72.40;;;;;;5070227;28;20303;-64
2023/12/04 09:14:08;;;;;;;12.95;9.23;;;3.90;72.30;;;;;;5070088;28;20209;-64
2023/12/04 09:16:37;;;;;;;11.82;8.73;;;4.00;72.30;;;;;;5071714;28;20290;-64
2023/12/04 09:19:04;;;;;;;11.85;8.98;;;4.00;72.30;;;;;;5082774;28;20217;-64
2023/12/04 09:21:31;;;;;;;13.55;9.27;;;4.00;72.30;;;;;;5068576;28;20209;-62
2023/12/04 09:23:58;;;;;;;11.50;8.70;;;4.10;72.30;;;;;;5050199;28;20206;-62
2023/12/04 09:26:24;;;;;;;13.35;10.18;;;4.10;72.30;;;;;;5052274;28;20202;-63
2023/12/04 09:28:51;;;;;;;12.57;9.60;;;4.10;71.80;;;;;;5057781;28;20283;-64
2023/12/04 09:31:18;;;;;;;11.82;9.40;;;4.10;72.00;;;;;;5072934;28;20272;-63
2023/12/04 09:33:47;;;;;;;11.40;8.90;;;4.10;72.10;;;;;;5075629;28;20204;-64
2023/12/04 09:36:14;;;;;;;12.05;9.27;;;4.10;72.00;;;;;;5089970;28;20212;-63
2023/12/04 09:38:41;;;;;;;13.65;9.48;;;4.10;71.70;;;;;;5092002;28;20227;-64
2023/12/04 09:41:12;;;;;;;17.73;11.15;;;4.10;71.90;;;;;;5089260;28;20284;-64
2023/12/04 09:43:40;;;;;;;14.05;9.90;;;4.20;72.00;;;;;;5073773;28;20292;-62
2023/12/04 09:46:09;;;;;;;11.52;8.38;;;4.20;72.30;;;;;;5073931;28;20204;-62
2023/12/04 09:48:37;;;;;;;10.48;8.60;;;4.20;72.60;;;;;;5084885;28;20280;-64
2023/12/04 09:51:09;;;;;;;11.85;8.20;;;4.20;72.60;;;;;;5087079;28;20324;-64
2023/12/04 09:53:36;;;;;;;10.70;8.18;;;4.30;72.90;;;;;;5085865;28;20201;-63
2023/12/04 09:56:05;;;;;;;13.98;11.68;;;4.30;72.70;;;;;;5087139;28;20256;-62
2023/12/04 09:58:33;;;;;;;11.07;8.82;;;4.30;72.80;;;;;;5090976;28;20230;-62
2023/12/04 10:01:01;;;;;;;11.45;8.85;;;4.30;72.30;;;;;;5090909;28;20230;-63
2023/12/04 10:03:29;;;;;;;10.68;8.85;;;4.20;72.70;;;;;;5073782;28;20717;-62
2023/12/04 10:05:57;;;;;;;11.65;8.88;;;4.10;72.70;;;;;;5074776;28;20201;-62
2023/12/04 10:08:25;;;;;;;12.70;9.23;;;4.10;72.50;;;;;;5078593;28;20203;-62
2023/12/04 10:10:52;;;;;;;13.95;9.50;;;4.10;73.00;;;;;;5091741;28;20205;-63
2023/12/04 10:13:19;;;;;;;12.70;8.35;;;4.10;73.40;;;;;;5076841;28;20279;-64
2023/12/04 10:15:49;;;;;;;12.70;9.55;;;4.20;73.60;;;;;;5074150;28;20197;-63
2023/12/04 10:18:27;;;;;;;11.52;8.88;;;4.30;72.90;;;;;;5072877;28;20225;-62
2023/12/04 10:20:55;;;;;;;10.80;8.95;;;4.20;72.20;;;;;;5073541;28;20205;-63
2023/12/04 10:23:22;;;;;;;11.68;8.98;;;4.30;72.50;;;;;;5075706;28;20201;-62
2023/12/04 10:25:51;;;;;;;10.40;8.65;;;4.40;72.80;;;;;;5073262;28;20225;-62
2023/12/04 10:28:19;;;;;;;11.50;9.00;;;4.40;72.50;;;;;;5073263;28;20304;-62
2023/12/04 10:30:46;;;;;;;10.40;8.30;;;4.50;72.50;;;;;;5090893;28;20682;-62
2023/12/04 10:33:14;;;;;;;12.57;8.98;;;4.60;72.30;;;;;;5091498;28;20207;-62
2023/12/04 10:35:42;;;;;;;10.73;8.55;;;4.70;72.50;;;;;;5091604;28;20224;-64
2023/12/04 10:38:09;;;;;;;10.50;8.48;;;4.70;73.30;;;;;;5073087;28;20282;-62
2023/12/04 10:40:37;;;;;;;11.32;8.57;;;4.80;72.40;;;;;;5072967;28;20258;-62
2023/12/04 10:43:17;;;;;;;12.13;8.20;;;4.80;72.60;;;;;;5074072;28;20568;-63
2023/12/04 10:45:46;;;;;;;10.35;8.10;;;4.80;72.60;;;;;;5072712;28;20208;-63
2023/12/04 10:48:13;;;;;;;11.75;8.02;;;4.80;72.50;;;;;;5085085;28;20216;-64
2023/12/04 10:50:42;;;;;;;12.93;8.63;;;4.80;72.60;;;;;;5092022;28;20277;-64
2023/12/04 10:53:10;;;;;;;13.02;9.10;;;4.90;72.90;;;;;;5063783;28;20279;-64
2023/12/04 10:55:38;;;;;;;14.18;9.25;;;4.90;72.90;;;;;;5078838;28;20676;-64
2023/12/04 10:58:07;;;;;;;11.02;8.75;;;4.90;72.70;;;;;;5072953;28;20229;-64
2023/12/04 11:00:37;;;;;;;12.18;8.77;;;5.00;72.60;;;;;;5087817;28;20227;-63
2023/12/04 11:03:07;;;;;;;12.50;9.10;;;5.00;72.50;;;;;;5092357;28;20214;-63
2023/12/04 11:05:39;;;;;;;13.30;9.35;;;5.00;72.20;;;;;;5087008;28;20831;-64
2023/12/04 11:08:08;;;;;;;13.05;9.35;;;5.00;72.50;;;;;;5091610;28;20204;-63
2023/12/04 11:10:37;;;;;;;10.90;8.70;;;5.00;72.20;;;;;;5084606;28;20207;-64
2023/12/04 11:13:09;;;;;;;14.93;9.63;;;5.00;71.90;;;;;;5092314;28;20840;-64
2023/12/04 11:15:41;;;;;;;11.45;8.60;;;5.10;72.20;;;;;;5092458;28;20201;-63
2023/12/04 11:18:10;;;;;;;12.53;8.43;;;5.10;72.20;;;;;;5092131;28;20204;-64
2023/12/04 11:20:45;;;;;;;12.40;9.25;;;5.10;72.20;;;;;;5090813;28;20454;-64
2023/12/04 11:23:14;;;;;;;11.48;8.75;;;5.10;72.20;;;;;;5083237;28;20207;-64
2023/12/04 11:25:41;;;;;;;12.63;9.55;;;5.10;72.10;;;;;;5087553;28;20273;-62
2023/12/04 11:28:09;;;;;;;11.47;8.47;;;5.10;72.20;;;;;;5075549;28;20288;-64
2023/12/04 11:30:38;;;;;;;11.67;9.33;;;5.20;72.60;;;;;;5071735;28;20455;-64
2023/12/04 11:33:06;;;;;;;11.97;8.93;;;5.20;72.10;;;;;;5084488;28;20454;-62
2023/12/04 11:35:34;;;;;;;13.20;8.88;;;5.20;72.30;;;;;;5082944;28;20439;-64
2023/12/04 11:38:01;;;;;;;10.80;8.27;;;5.20;72.00;;;;;;5078250;28;20201;-63
2023/12/04 11:40:30;;;;;;;11.02;8.18;;;5.20;71.90;;;;;;5071756;28;20225;-63
2023/12/04 11:42:57;;;;;;;12.30;8.67;;;5.30;71.90;;;;;;5072535;28;20216;-63
2023/12/04 11:45:23;;;;;;;13.20;9.30;;;5.30;72.00;;;;;;5076202;28;20447;-64
2023/12/04 11:47:55;;;;;;;10.20;7.73;;;5.30;72.00;;;;;;5090399;28;20441;-64
2023/12/04 11:50:22;;;;;;;11.60;9.13;;;5.40;72.20;;;;;;5091419;28;20439;-62
2023/12/04 11:52:49;;;;;;;11.43;7.97;;;5.40;72.50;;;;;;5072796;28;20543;-63
2023/12/04 11:55:22;;;;;;;13.77;8.70;;;5.40;72.20;;;;;;5071151;28;20507;-64
2023/12/04 11:57:51;;;;;;;12.53;8.10;;;5.50;71.70;;;;;;5074927;28;20442;-65
2023/12/04 12:00:23;;;;;;;10.53;7.87;;;5.50;71.60;;;;;;5088300;28;20494;-63
2023/12/04 12:03:05;;;;;;;13.40;8.90;;;5.50;71.70;;;;;;5091731;28;20461;-64
2023/12/04 12:05:34;;;;;;;11.07;7.93;;;5.50;71.60;;;;;;5091259;28;20454;-65
2023/12/04 12:08:03;;;;;;;13.77;8.75;;;5.60;71.60;;;;;;5091423;28;20439;-65
2023/12/04 12:10:30;;;;;;;12.23;8.90;;;5.60;71.40;;;;;;5073706;28;20221;-64
2023/12/04 12:12:58;;;;;;;10.27;8.30;;;5.60;71.40;;;;;;5078023;28;20475;-63
2023/12/04 12:15:25;;;;;;;14.07;8.83;;;5.70;71.50;;;;;;5070303;28;20460;-63
2023/12/04 12:17:54;;;;;;;10.20;8.10;;;5.70;71.80;;;;;;5071059;28;20562;-65
2023/12/04 12:20:21;;;;;;;9.70;7.33;;;5.70;71.60;;;;;;5072328;28;20826;-63
2023/12/04 12:22:50;;;;;;;11.55;8.02;;;5.70;71.90;;;;;;5058271;28;20932;-63
2023/12/04 12:25:19;;;;;;;8.93;7.10;;;5.70;72.50;;;;;;5050851;28;20869;-65
2023/12/04 12:27:46;;;;;;;10.23;8.13;;;5.80;73.20;;;;;;5051306;28;20436;-65
2023/12/04 12:30:15;;;;;;;10.40;8.00;;;5.80;73.30;;;;;;5059676;28;21007;-64
2023/12/04 12:32:42;;;;;;;9.67;8.10;;;5.80;73.40;;;;;;5083512;28;21021;-64
2023/12/04 12:35:11;;;;;;;11.35;8.70;;;5.80;73.90;;;;;;5090953;28;20465;-64
2023/12/04 12:37:39;;;;;;;8.93;7.70;;;5.80;74.10;;;;;;5088180;28;20589;-63
2023/12/04 12:40:09;;;;;;;10.77;8.43;;;5.80;74.40;;;;;;5081689;28;20572;-64
2023/12/04 12:42:36;;;;;;;9.80;8.17;;;5.90;74.60;;;;;;5090764;28;20465;-64
2023/12/04 12:45:04;;;;;;;11.57;8.17;;;5.80;75.50;;;;;;5090812;28;20445;-64